Airport Name : Trat

Other Name : Trat

ICAO : VTBO

IATA :

FAA :

Latitude : 12.275269

Longitude : 102.319917

Country : Thailand

Local Date and Time : 21 Sep 2020 14:09

 

TAF (Terminal Aerodrome Forecast)

TAF VTBO 210500Z 2106/2206 24005KT 9999 FEW020 SCT100 BECMG 2118/2120 34005KT BECMG 2202/2204 20005KT

 

METAR (METeorological Aerodrome Report)

VTBO 210700Z 26008KT 9999 FEW020 SCT100 31/26 Q1008

VTBO 210600Z 25005KT 9999 FEW020 32/25 Q1008

VTBO 210500Z VRB02KT 9999 FEW020 31/25 Q1010

VTBO 210400Z VRB02KT 9999 FEW020 SCT100 30/24 Q1010

To Charter a Jet Click here.